sensor_id;sensor_type;location;lat;lon;timestamp;P1;durP1;ratioP1;P2;durP2;ratioP2
66270;SDS011;53063;39.614;8.814;2023-05-10T00:00:08;9.98;;;5.28;;
66270;SDS011;53063;39.614;8.814;2023-05-10T00:02:38;10.30;;;5.40;;
66270;SDS011;53063;39.614;8.814;2023-05-10T00:05:04;9.25;;;5.10;;
66270;SDS011;53063;39.614;8.814;2023-05-10T00:07:31;8.20;;;4.68;;
66270;SDS011;53063;39.614;8.814;2023-05-10T00:09:56;6.88;;;4.25;;
66270;SDS011;53063;39.614;8.814;2023-05-10T00:12:22;8.27;;;4.30;;
66270;SDS011;53063;39.614;8.814;2023-05-10T00:14:48;12.57;;;6.85;;
66270;SDS011;53063;39.614;8.814;2023-05-10T00:17:14;7.80;;;4.72;;
66270;SDS011;53063;39.614;8.814;2023-05-10T00:19:40;9.63;;;5.13;;
66270;SDS011;53063;39.614;8.814;2023-05-10T00:22:06;9.15;;;4.78;;
66270;SDS011;53063;39.614;8.814;2023-05-10T00:24:31;11.02;;;4.85;;
66270;SDS011;53063;39.614;8.814;2023-05-10T00:26:57;12.93;;;5.00;;
66270;SDS011;53063;39.614;8.814;2023-05-10T00:29:23;12.70;;;4.25;;
66270;SDS011;53063;39.614;8.814;2023-05-10T00:31:49;14.57;;;4.65;;
66270;SDS011;53063;39.614;8.814;2023-05-10T00:34:15;10.75;;;4.57;;
66270;SDS011;53063;39.614;8.814;2023-05-10T00:36:41;11.35;;;5.22;;
66270;SDS011;53063;39.614;8.814;2023-05-10T00:39:07;13.52;;;4.88;;
66270;SDS011;53063;39.614;8.814;2023-05-10T00:41:33;7.80;;;4.50;;
66270;SDS011;53063;39.614;8.814;2023-05-10T00:44:00;9.55;;;5.03;;
66270;SDS011;53063;39.614;8.814;2023-05-10T00:46:27;9.02;;;4.50;;
66270;SDS011;53063;39.614;8.814;2023-05-10T00:48:54;8.40;;;4.35;;
66270;SDS011;53063;39.614;8.814;2023-05-10T00:51:20;10.07;;;4.55;;
66270;SDS011;53063;39.614;8.814;2023-05-10T00:53:46;12.65;;;5.05;;
66270;SDS011;53063;39.614;8.814;2023-05-10T00:56:13;12.18;;;4.70;;
66270;SDS011;53063;39.614;8.814;2023-05-10T00:58:39;12.48;;;5.25;;
66270;SDS011;53063;39.614;8.814;2023-05-10T01:01:06;9.80;;;5.60;;
66270;SDS011;53063;39.614;8.814;2023-05-10T01:03:32;8.60;;;5.15;;
66270;SDS011;53063;39.614;8.814;2023-05-10T01:05:58;13.27;;;6.22;;
66270;SDS011;53063;39.614;8.814;2023-05-10T01:08:24;9.98;;;5.32;;
66270;SDS011;53063;39.614;8.814;2023-05-10T01:10:51;10.05;;;5.63;;
66270;SDS011;53063;39.614;8.814;2023-05-10T01:13:18;11.95;;;5.18;;
66270;SDS011;53063;39.614;8.814;2023-05-10T01:15:55;8.23;;;4.85;;
66270;SDS011;53063;39.614;8.814;2023-05-10T01:18:22;13.45;;;5.55;;
66270;SDS011;53063;39.614;8.814;2023-05-10T01:20:53;9.65;;;5.00;;
66270;SDS011;53063;39.614;8.814;2023-05-10T01:24:12;9.80;;;4.95;;
66270;SDS011;53063;39.614;8.814;2023-05-10T01:37:21;8.30;;;4.72;;
66270;SDS011;53063;39.614;8.814;2023-05-10T01:40:00;10.32;;;4.78;;
66270;SDS011;53063;39.614;8.814;2023-05-10T01:42:36;8.25;;;4.20;;
66270;SDS011;53063;39.614;8.814;2023-05-10T01:48:06;10.98;;;4.45;;
66270;SDS011;53063;39.614;8.814;2023-05-10T01:50:36;9.65;;;4.68;;
66270;SDS011;53063;39.614;8.814;2023-05-10T01:53:08;7.30;;;4.13;;
66270;SDS011;53063;39.614;8.814;2023-05-10T01:55:41;9.27;;;4.18;;
66270;SDS011;53063;39.614;8.814;2023-05-10T01:58:30;9.82;;;4.78;;
66270;SDS011;53063;39.614;8.814;2023-05-10T02:01:00;9.18;;;5.13;;
66270;SDS011;53063;39.614;8.814;2023-05-10T02:03:28;6.13;;;5.05;;
66270;SDS011;53063;39.614;8.814;2023-05-10T02:05:57;12.18;;;5.68;;
66270;SDS011;53063;39.614;8.814;2023-05-10T02:08:24;8.63;;;4.85;;
66270;SDS011;53063;39.614;8.814;2023-05-10T02:10:52;10.23;;;4.32;;
66270;SDS011;53063;39.614;8.814;2023-05-10T02:13:20;9.00;;;4.32;;
66270;SDS011;53063;39.614;8.814;2023-05-10T02:15:48;9.55;;;4.05;;
66270;SDS011;53063;39.614;8.814;2023-05-10T02:18:16;9.43;;;4.35;;
66270;SDS011;53063;39.614;8.814;2023-05-10T02:20:43;9.80;;;4.30;;
66270;SDS011;53063;39.614;8.814;2023-05-10T02:23:12;8.63;;;3.45;;
66270;SDS011;53063;39.614;8.814;2023-05-10T02:25:39;9.52;;;4.22;;
66270;SDS011;53063;39.614;8.814;2023-05-10T02:28:07;7.15;;;3.40;;
66270;SDS011;53063;39.614;8.814;2023-05-10T02:30:35;10.25;;;3.65;;
66270;SDS011;53063;39.614;8.814;2023-05-10T02:33:02;15.57;;;4.15;;
66270;SDS011;53063;39.614;8.814;2023-05-10T02:35:30;8.38;;;3.08;;
66270;SDS011;53063;39.614;8.814;2023-05-10T02:37:58;11.10;;;3.63;;
66270;SDS011;53063;39.614;8.814;2023-05-10T02:40:25;7.50;;;3.63;;
66270;SDS011;53063;39.614;8.814;2023-05-10T02:42:53;8.38;;;3.60;;
66270;SDS011;53063;39.614;8.814;2023-05-10T02:45:21;8.30;;;3.40;;
66270;SDS011;53063;39.614;8.814;2023-05-10T02:47:51;8.50;;;3.75;;
66270;SDS011;53063;39.614;8.814;2023-05-10T02:50:19;11.02;;;3.85;;
66270;SDS011;53063;39.614;8.814;2023-05-10T02:52:47;9.50;;;3.67;;
66270;SDS011;53063;39.614;8.814;2023-05-10T02:57:54;8.23;;;3.45;;
66270;SDS011;53063;39.614;8.814;2023-05-10T03:00:24;7.72;;;3.03;;
66270;SDS011;53063;39.614;8.814;2023-05-10T03:02:50;8.85;;;3.40;;
66270;SDS011;53063;39.614;8.814;2023-05-10T03:05:17;5.15;;;3.42;;
66270;SDS011;53063;39.614;8.814;2023-05-10T03:07:43;11.63;;;3.63;;
66270;SDS011;53063;39.614;8.814;2023-05-10T03:10:10;9.98;;;3.30;;
66270;SDS011;53063;39.614;8.814;2023-05-10T03:18:37;8.57;;;2.85;;
66270;SDS011;53063;39.614;8.814;2023-05-10T03:21:10;7.07;;;3.00;;
66270;SDS011;53063;39.614;8.814;2023-05-10T03:23:48;8.00;;;3.17;;
66270;SDS011;53063;39.614;8.814;2023-05-10T03:26:34;6.03;;;2.72;;
66270;SDS011;53063;39.614;8.814;2023-05-10T03:29:07;8.48;;;3.60;;
66270;SDS011;53063;39.614;8.814;2023-05-10T03:31:35;15.48;;;3.42;;
66270;SDS011;53063;39.614;8.814;2023-05-10T03:34:01;7.20;;;3.10;;
66270;SDS011;53063;39.614;8.814;2023-05-10T03:36:27;6.57;;;3.03;;
66270;SDS011;53063;39.614;8.814;2023-05-10T03:38:54;8.73;;;3.30;;
66270;SDS011;53063;39.614;8.814;2023-05-10T03:41:20;9.52;;;3.03;;
66270;SDS011;53063;39.614;8.814;2023-05-10T03:43:47;9.35;;;4.22;;
66270;SDS011;53063;39.614;8.814;2023-05-10T03:46:12;10.48;;;3.60;;
66270;SDS011;53063;39.614;8.814;2023-05-10T03:48:38;10.30;;;3.88;;
66270;SDS011;53063;39.614;8.814;2023-05-10T03:51:05;10.70;;;3.08;;
66270;SDS011;53063;39.614;8.814;2023-05-10T03:53:31;7.90;;;2.95;;
66270;SDS011;53063;39.614;8.814;2023-05-10T03:55:57;11.02;;;2.60;;
66270;SDS011;53063;39.614;8.814;2023-05-10T03:58:23;4.78;;;2.40;;
66270;SDS011;53063;39.614;8.814;2023-05-10T04:00:49;12.45;;;3.00;;
66270;SDS011;53063;39.614;8.814;2023-05-10T04:03:16;5.70;;;2.58;;
66270;SDS011;53063;39.614;8.814;2023-05-10T04:05:42;7.38;;;2.70;;
66270;SDS011;53063;39.614;8.814;2023-05-10T04:08:08;7.50;;;2.25;;
66270;SDS011;53063;39.614;8.814;2023-05-10T04:10:34;4.93;;;2.30;;
66270;SDS011;53063;39.614;8.814;2023-05-10T04:13:00;5.70;;;2.67;;
66270;SDS011;53063;39.614;8.814;2023-05-10T04:15:26;6.93;;;2.30;;
66270;SDS011;53063;39.614;8.814;2023-05-10T04:17:52;7.80;;;2.17;;
66270;SDS011;53063;39.614;8.814;2023-05-10T04:20:18;10.40;;;2.60;;
66270;SDS011;53063;39.614;8.814;2023-05-10T04:22:44;8.25;;;2.53;;
66270;SDS011;53063;39.614;8.814;2023-05-10T04:25:10;8.80;;;2.53;;
66270;SDS011;53063;39.614;8.814;2023-05-10T04:27:36;7.82;;;2.60;;
66270;SDS011;53063;39.614;8.814;2023-05-10T04:30:02;10.23;;;2.65;;
66270;SDS011;53063;39.614;8.814;2023-05-10T04:32:28;7.20;;;2.17;;
66270;SDS011;53063;39.614;8.814;2023-05-10T04:34:54;8.63;;;2.83;;
66270;SDS011;53063;39.614;8.814;2023-05-10T04:37:20;8.73;;;2.30;;
66270;SDS011;53063;39.614;8.814;2023-05-10T04:39:48;11.02;;;2.58;;
66270;SDS011;53063;39.614;8.814;2023-05-10T04:42:13;4.28;;;2.03;;
66270;SDS011;53063;39.614;8.814;2023-05-10T04:44:40;5.88;;;2.40;;
66270;SDS011;53063;39.614;8.814;2023-05-10T04:47:06;8.20;;;2.33;;
66270;SDS011;53063;39.614;8.814;2023-05-10T04:49:32;7.43;;;2.05;;
66270;SDS011;53063;39.614;8.814;2023-05-10T04:51:58;5.70;;;2.30;;
66270;SDS011;53063;39.614;8.814;2023-05-10T04:54:23;7.10;;;2.10;;
66270;SDS011;53063;39.614;8.814;2023-05-10T04:56:50;6.82;;;2.05;;
66270;SDS011;53063;39.614;8.814;2023-05-10T04:59:16;6.38;;;1.80;;
66270;SDS011;53063;39.614;8.814;2023-05-10T05:01:42;6.22;;;3.08;;
66270;SDS011;53063;39.614;8.814;2023-05-10T05:04:08;3.90;;;2.03;;
66270;SDS011;53063;39.614;8.814;2023-05-10T05:06:34;5.38;;;1.67;;
66270;SDS011;53063;39.614;8.814;2023-05-10T05:09:00;2.92;;;1.60;;
66270;SDS011;53063;39.614;8.814;2023-05-10T05:11:26;5.47;;;1.75;;
66270;SDS011;53063;39.614;8.814;2023-05-10T05:13:52;4.82;;;1.60;;
66270;SDS011;53063;39.614;8.814;2023-05-10T05:16:18;8.07;;;2.13;;
66270;SDS011;53063;39.614;8.814;2023-05-10T05:18:44;3.78;;;1.52;;
66270;SDS011;53063;39.614;8.814;2023-05-10T05:21:13;9.77;;;1.80;;
66270;SDS011;53063;39.614;8.814;2023-05-10T05:23:42;9.18;;;1.40;;
66270;SDS011;53063;39.614;8.814;2023-05-10T05:26:08;7.28;;;1.67;;
66270;SDS011;53063;39.614;8.814;2023-05-10T05:28:34;9.85;;;2.10;;
66270;SDS011;53063;39.614;8.814;2023-05-10T05:31:05;4.93;;;1.73;;
66270;SDS011;53063;39.614;8.814;2023-05-10T05:33:32;4.97;;;1.92;;
66270;SDS011;53063;39.614;8.814;2023-05-10T05:36:02;6.20;;;1.80;;
66270;SDS011;53063;39.614;8.814;2023-05-10T05:38:29;8.48;;;2.10;;
66270;SDS011;53063;39.614;8.814;2023-05-10T05:40:55;5.88;;;1.45;;
66270;SDS011;53063;39.614;8.814;2023-05-10T05:43:22;9.85;;;2.15;;
66270;SDS011;53063;39.614;8.814;2023-05-10T05:45:48;8.15;;;2.38;;
66270;SDS011;53063;39.614;8.814;2023-05-10T05:48:14;9.20;;;2.40;;
66270;SDS011;53063;39.614;8.814;2023-05-10T05:50:40;5.55;;;1.75;;
66270;SDS011;53063;39.614;8.814;2023-05-10T05:53:06;6.75;;;1.90;;
66270;SDS011;53063;39.614;8.814;2023-05-10T05:55:33;5.97;;;1.83;;
66270;SDS011;53063;39.614;8.814;2023-05-10T05:57:59;9.60;;;1.88;;
66270;SDS011;53063;39.614;8.814;2023-05-10T06:00:25;11.23;;;2.10;;
66270;SDS011;53063;39.614;8.814;2023-05-10T06:02:51;6.72;;;2.05;;
66270;SDS011;53063;39.614;8.814;2023-05-10T06:05:17;9.20;;;2.40;;
66270;SDS011;53063;39.614;8.814;2023-05-10T06:07:43;8.77;;;2.75;;
66270;SDS011;53063;39.614;8.814;2023-05-10T06:10:09;9.63;;;2.00;;
66270;SDS011;53063;39.614;8.814;2023-05-10T06:12:35;8.75;;;2.03;;
66270;SDS011;53063;39.614;8.814;2023-05-10T06:15:02;8.10;;;2.40;;
66270;SDS011;53063;39.614;8.814;2023-05-10T06:17:28;9.45;;;2.25;;
66270;SDS011;53063;39.614;8.814;2023-05-10T06:19:55;7.53;;;2.10;;
66270;SDS011;53063;39.614;8.814;2023-05-10T06:22:21;7.40;;;1.90;;
66270;SDS011;53063;39.614;8.814;2023-05-10T06:24:48;5.90;;;1.90;;
66270;SDS011;53063;39.614;8.814;2023-05-10T06:27:14;6.63;;;1.88;;
66270;SDS011;53063;39.614;8.814;2023-05-10T06:29:40;5.18;;;1.40;;
66270;SDS011;53063;39.614;8.814;2023-05-10T06:32:06;9.80;;;2.13;;
66270;SDS011;53063;39.614;8.814;2023-05-10T06:34:32;7.60;;;1.83;;
66270;SDS011;53063;39.614;8.814;2023-05-10T06:36:58;3.63;;;1.35;;
66270;SDS011;53063;39.614;8.814;2023-05-10T06:39:24;8.65;;;1.63;;
66270;SDS011;53063;39.614;8.814;2023-05-10T06:41:50;7.88;;;1.52;;
66270;SDS011;53063;39.614;8.814;2023-05-10T06:44:18;8.85;;;2.67;;
66270;SDS011;53063;39.614;8.814;2023-05-10T06:46:43;3.38;;;1.10;;
66270;SDS011;53063;39.614;8.814;2023-05-10T06:49:09;7.85;;;1.35;;
66270;SDS011;53063;39.614;8.814;2023-05-10T06:51:35;4.78;;;1.10;;
66270;SDS011;53063;39.614;8.814;2023-05-10T06:54:01;7.78;;;1.70;;
66270;SDS011;53063;39.614;8.814;2023-05-10T06:56:27;6.68;;;1.00;;
66270;SDS011;53063;39.614;8.814;2023-05-10T06:58:53;4.05;;;0.95;;
66270;SDS011;53063;39.614;8.814;2023-05-10T07:01:19;5.68;;;1.23;;
66270;SDS011;53063;39.614;8.814;2023-05-10T07:03:45;4.38;;;1.65;;
66270;SDS011;53063;39.614;8.814;2023-05-10T07:06:10;9.77;;;1.23;;
66270;SDS011;53063;39.614;8.814;2023-05-10T07:08:37;6.78;;;1.10;;
66270;SDS011;53063;39.614;8.814;2023-05-10T07:11:03;9.27;;;1.70;;
66270;SDS011;53063;39.614;8.814;2023-05-10T07:13:32;7.68;;;1.92;;
66270;SDS011;53063;39.614;8.814;2023-05-10T07:15:58;5.50;;;1.33;;
66270;SDS011;53063;39.614;8.814;2023-05-10T07:18:25;6.75;;;1.50;;
66270;SDS011;53063;39.614;8.814;2023-05-10T07:20:51;8.23;;;1.33;;
66270;SDS011;53063;39.614;8.814;2023-05-10T07:23:18;8.10;;;1.00;;
66270;SDS011;53063;39.614;8.814;2023-05-10T07:25:47;12.02;;;1.27;;
66270;SDS011;53063;39.614;8.814;2023-05-10T07:28:15;9.25;;;1.20;;
66270;SDS011;53063;39.614;8.814;2023-05-10T07:30:41;9.57;;;1.13;;
66270;SDS011;53063;39.614;8.814;2023-05-10T07:33:09;11.82;;;1.75;;
66270;SDS011;53063;39.614;8.814;2023-05-10T07:35:36;5.07;;;1.38;;
66270;SDS011;53063;39.614;8.814;2023-05-10T07:38:02;6.20;;;1.23;;
66270;SDS011;53063;39.614;8.814;2023-05-10T07:40:28;10.23;;;1.23;;
66270;SDS011;53063;39.614;8.814;2023-05-10T07:42:55;10.07;;;1.73;;
66270;SDS011;53063;39.614;8.814;2023-05-10T07:45:21;11.05;;;1.30;;
66270;SDS011;53063;39.614;8.814;2023-05-10T07:47:48;9.38;;;1.40;;
66270;SDS011;53063;39.614;8.814;2023-05-10T07:50:14;7.85;;;1.55;;
66270;SDS011;53063;39.614;8.814;2023-05-10T07:52:40;7.25;;;1.83;;
66270;SDS011;53063;39.614;8.814;2023-05-10T07:55:07;9.27;;;1.40;;
66270;SDS011;53063;39.614;8.814;2023-05-10T07:57:34;11.35;;;1.50;;
66270;SDS011;53063;39.614;8.814;2023-05-10T08:00:00;5.60;;;1.33;;
66270;SDS011;53063;39.614;8.814;2023-05-10T08:02:26;13.48;;;2.28;;
66270;SDS011;53063;39.614;8.814;2023-05-10T08:04:51;9.32;;;1.90;;
66270;SDS011;53063;39.614;8.814;2023-05-10T08:07:17;11.10;;;1.27;;
66270;SDS011;53063;39.614;8.814;2023-05-10T08:09:44;6.55;;;1.08;;
66270;SDS011;53063;39.614;8.814;2023-05-10T08:12:09;5.95;;;1.30;;
66270;SDS011;53063;39.614;8.814;2023-05-10T08:14:35;5.82;;;1.20;;
66270;SDS011;53063;39.614;8.814;2023-05-10T08:17:02;6.75;;;1.38;;
66270;SDS011;53063;39.614;8.814;2023-05-10T08:19:28;11.30;;;1.70;;
66270;SDS011;53063;39.614;8.814;2023-05-10T08:21:54;8.73;;;1.48;;
66270;SDS011;53063;39.614;8.814;2023-05-10T08:24:21;12.55;;;1.90;;
66270;SDS011;53063;39.614;8.814;2023-05-10T08:26:47;8.57;;;1.45;;
66270;SDS011;53063;39.614;8.814;2023-05-10T08:29:14;9.43;;;1.73;;
66270;SDS011;53063;39.614;8.814;2023-05-10T08:31:40;9.05;;;1.50;;
66270;SDS011;53063;39.614;8.814;2023-05-10T08:34:06;10.55;;;2.08;;
66270;SDS011;53063;39.614;8.814;2023-05-10T08:36:32;12.18;;;1.60;;
66270;SDS011;53063;39.614;8.814;2023-05-10T08:38:58;12.40;;;1.80;;
66270;SDS011;53063;39.614;8.814;2023-05-10T08:41:24;11.88;;;1.98;;
66270;SDS011;53063;39.614;8.814;2023-05-10T08:43:53;9.50;;;1.30;;
66270;SDS011;53063;39.614;8.814;2023-05-10T08:46:20;9.55;;;1.50;;
66270;SDS011;53063;39.614;8.814;2023-05-10T08:48:48;11.50;;;1.90;;
66270;SDS011;53063;39.614;8.814;2023-05-10T08:51:19;14.23;;;1.80;;
66270;SDS011;53063;39.614;8.814;2023-05-10T08:53:48;15.93;;;1.73;;
66270;SDS011;53063;39.614;8.814;2023-05-10T08:56:15;10.77;;;1.90;;
66270;SDS011;53063;39.614;8.814;2023-05-10T08:58:42;9.65;;;1.95;;
66270;SDS011;53063;39.614;8.814;2023-05-10T09:01:09;12.40;;;1.90;;
66270;SDS011;53063;39.614;8.814;2023-05-10T09:03:38;10.68;;;1.67;;
66270;SDS011;53063;39.614;8.814;2023-05-10T09:06:04;9.88;;;2.53;;
66270;SDS011;53063;39.614;8.814;2023-05-10T09:08:30;8.88;;;2.03;;
66270;SDS011;53063;39.614;8.814;2023-05-10T09:10:56;10.60;;;2.00;;
66270;SDS011;53063;39.614;8.814;2023-05-10T09:13:23;12.18;;;2.72;;
66270;SDS011;53063;39.614;8.814;2023-05-10T09:15:50;12.35;;;2.60;;
66270;SDS011;53063;39.614;8.814;2023-05-10T09:18:16;12.10;;;1.83;;
66270;SDS011;53063;39.614;8.814;2023-05-10T09:20:42;9.98;;;1.88;;
66270;SDS011;53063;39.614;8.814;2023-05-10T09:23:08;10.82;;;1.98;;
66270;SDS011;53063;39.614;8.814;2023-05-10T09:25:34;12.90;;;1.80;;
66270;SDS011;53063;39.614;8.814;2023-05-10T09:28:01;11.65;;;2.47;;
66270;SDS011;53063;39.614;8.814;2023-05-10T09:30:30;17.80;;;2.33;;
66270;SDS011;53063;39.614;8.814;2023-05-10T09:32:57;9.07;;;2.15;;
66270;SDS011;53063;39.614;8.814;2023-05-10T09:35:25;10.32;;;2.45;;
66270;SDS011;53063;39.614;8.814;2023-05-10T09:37:54;9.40;;;2.17;;
66270;SDS011;53063;39.614;8.814;2023-05-10T09:40:22;12.98;;;1.80;;
66270;SDS011;53063;39.614;8.814;2023-05-10T09:42:54;13.85;;;2.60;;
66270;SDS011;53063;39.614;8.814;2023-05-10T09:45:23;11.38;;;1.88;;
66270;SDS011;53063;39.614;8.814;2023-05-10T09:47:51;13.00;;;2.30;;
66270;SDS011;53063;39.614;8.814;2023-05-10T09:50:17;10.23;;;1.90;;
66270;SDS011;53063;39.614;8.814;2023-05-10T09:52:47;12.70;;;2.60;;
66270;SDS011;53063;39.614;8.814;2023-05-10T09:57:42;9.00;;;1.65;;
66270;SDS011;53063;39.614;8.814;2023-05-10T10:00:08;15.77;;;2.38;;
66270;SDS011;53063;39.614;8.814;2023-05-10T10:02:41;16.33;;;2.35;;
66270;SDS011;53063;39.614;8.814;2023-05-10T10:05:07;15.73;;;2.70;;
66270;SDS011;53063;39.614;8.814;2023-05-10T10:07:33;12.77;;;2.10;;
66270;SDS011;53063;39.614;8.814;2023-05-10T10:10:00;9.35;;;2.03;;
66270;SDS011;53063;39.614;8.814;2023-05-10T10:12:26;16.15;;;2.40;;
66270;SDS011;53063;39.614;8.814;2023-05-10T10:14:52;13.13;;;2.47;;
66270;SDS011;53063;39.614;8.814;2023-05-10T10:17:20;14.82;;;2.45;;
66270;SDS011;53063;39.614;8.814;2023-05-10T10:19:46;17.40;;;2.30;;
66270;SDS011;53063;39.614;8.814;2023-05-10T10:22:14;11.98;;;1.70;;
66270;SDS011;53063;39.614;8.814;2023-05-10T10:24:40;12.98;;;2.35;;
66270;SDS011;53063;39.614;8.814;2023-05-10T10:33:07;11.02;;;1.88;;
66270;SDS011;53063;39.614;8.814;2023-05-10T10:35:52;12.35;;;1.60;;
66270;SDS011;53063;39.614;8.814;2023-05-10T10:38:18;9.93;;;1.90;;
66270;SDS011;53063;39.614;8.814;2023-05-10T10:40:45;11.48;;;1.77;;
66270;SDS011;53063;39.614;8.814;2023-05-10T10:46:10;10.80;;;2.10;;
66270;SDS011;53063;39.614;8.814;2023-05-10T10:48:40;12.68;;;1.90;;
66270;SDS011;53063;39.614;8.814;2023-05-10T10:51:12;15.93;;;3.05;;
66270;SDS011;53063;39.614;8.814;2023-05-10T10:53:39;15.68;;;2.30;;
66270;SDS011;53063;39.614;8.814;2023-05-10T10:56:07;11.82;;;2.13;;
66270;SDS011;53063;39.614;8.814;2023-05-10T10:58:35;10.77;;;2.47;;
66270;SDS011;53063;39.614;8.814;2023-05-10T11:01:18;12.98;;;2.90;;
66270;SDS011;53063;39.614;8.814;2023-05-10T11:04:31;16.45;;;2.42;;
66270;SDS011;53063;39.614;8.814;2023-05-10T11:06:31;12.00;;;2.22;;
66270;SDS011;53063;39.614;8.814;2023-05-10T11:08:58;11.10;;;2.03;;
66270;SDS011;53063;39.614;8.814;2023-05-10T11:11:34;15.65;;;2.75;;
66270;SDS011;53063;39.614;8.814;2023-05-10T11:14:07;14.70;;;1.95;;
66270;SDS011;53063;39.614;8.814;2023-05-10T11:16:42;12.15;;;2.10;;
66270;SDS011;53063;39.614;8.814;2023-05-10T11:19:13;13.80;;;3.05;;
66270;SDS011;53063;39.614;8.814;2023-05-10T11:21:51;16.33;;;2.78;;
66270;SDS011;53063;39.614;8.814;2023-05-10T11:24:37;10.82;;;2.75;;
66270;SDS011;53063;39.614;8.814;2023-05-10T11:27:03;13.73;;;2.35;;
66270;SDS011;53063;39.614;8.814;2023-05-10T11:29:29;15.30;;;2.65;;
66270;SDS011;53063;39.614;8.814;2023-05-10T11:31:58;11.57;;;2.28;;
66270;SDS011;53063;39.614;8.814;2023-05-10T11:34:25;10.77;;;2.38;;
66270;SDS011;53063;39.614;8.814;2023-05-10T11:36:55;13.77;;;2.00;;
66270;SDS011;53063;39.614;8.814;2023-05-10T11:39:29;15.57;;;2.17;;
66270;SDS011;53063;39.614;8.814;2023-05-10T11:41:56;13.23;;;2.20;;
66270;SDS011;53063;39.614;8.814;2023-05-10T11:44:23;9.80;;;2.42;;
66270;SDS011;53063;39.614;8.814;2023-05-10T11:46:54;10.88;;;2.20;;
66270;SDS011;53063;39.614;8.814;2023-05-10T11:49:23;12.02;;;2.78;;
66270;SDS011;53063;39.614;8.814;2023-05-10T11:51:51;12.00;;;2.03;;
66270;SDS011;53063;39.614;8.814;2023-05-10T11:54:17;13.25;;;2.20;;
66270;SDS011;53063;39.614;8.814;2023-05-10T11:56:42;7.68;;;2.00;;
66270;SDS011;53063;39.614;8.814;2023-05-10T11:59:09;12.05;;;2.50;;
66270;SDS011;53063;39.614;8.814;2023-05-10T12:01:35;11.95;;;2.50;;
66270;SDS011;53063;39.614;8.814;2023-05-10T12:04:02;13.10;;;2.63;;
66270;SDS011;53063;39.614;8.814;2023-05-10T12:06:29;12.07;;;1.90;;
66270;SDS011;53063;39.614;8.814;2023-05-10T12:08:57;12.57;;;2.17;;
66270;SDS011;53063;39.614;8.814;2023-05-10T12:11:27;11.65;;;2.10;;
66270;SDS011;53063;39.614;8.814;2023-05-10T12:13:54;15.98;;;2.65;;
66270;SDS011;53063;39.614;8.814;2023-05-10T12:16:25;10.20;;;2.05;;
66270;SDS011;53063;39.614;8.814;2023-05-10T12:18:56;16.13;;;3.15;;
66270;SDS011;53063;39.614;8.814;2023-05-10T12:21:23;14.80;;;2.58;;
66270;SDS011;53063;39.614;8.814;2023-05-10T12:23:50;17.15;;;2.42;;
66270;SDS011;53063;39.614;8.814;2023-05-10T12:26:17;16.95;;;2.42;;
66270;SDS011;53063;39.614;8.814;2023-05-10T12:28:46;18.40;;;3.70;;
66270;SDS011;53063;39.614;8.814;2023-05-10T12:31:12;22.25;;;2.88;;
66270;SDS011;53063;39.614;8.814;2023-05-10T12:33:41;12.68;;;2.72;;
66270;SDS011;53063;39.614;8.814;2023-05-10T12:36:09;11.50;;;2.30;;
66270;SDS011;53063;39.614;8.814;2023-05-10T12:38:37;12.05;;;2.25;;
66270;SDS011;53063;39.614;8.814;2023-05-10T12:41:05;13.93;;;2.78;;
66270;SDS011;53063;39.614;8.814;2023-05-10T12:43:32;12.73;;;2.13;;
66270;SDS011;53063;39.614;8.814;2023-05-10T12:46:09;15.35;;;2.50;;
66270;SDS011;53063;39.614;8.814;2023-05-10T12:48:40;17.05;;;2.83;;
66270;SDS011;53063;39.614;8.814;2023-05-10T12:51:07;10.70;;;2.35;;
66270;SDS011;53063;39.614;8.814;2023-05-10T12:53:35;12.55;;;2.35;;
66270;SDS011;53063;39.614;8.814;2023-05-10T12:56:01;15.68;;;2.50;;
66270;SDS011;53063;39.614;8.814;2023-05-10T12:58:27;13.63;;;2.80;;
66270;SDS011;53063;39.614;8.814;2023-05-10T13:00:53;12.25;;;2.83;;
66270;SDS011;53063;39.614;8.814;2023-05-10T13:03:21;10.88;;;1.90;;
66270;SDS011;53063;39.614;8.814;2023-05-10T13:05:47;10.18;;;1.90;;
66270;SDS011;53063;39.614;8.814;2023-05-10T13:08:13;11.45;;;2.28;;
66270;SDS011;53063;39.614;8.814;2023-05-10T13:10:39;15.40;;;3.35;;
66270;SDS011;53063;39.614;8.814;2023-05-10T13:13:05;19.15;;;2.88;;
66270;SDS011;53063;39.614;8.814;2023-05-10T13:15:32;15.45;;;2.53;;
66270;SDS011;53063;39.614;8.814;2023-05-10T13:17:58;12.77;;;3.03;;
66270;SDS011;53063;39.614;8.814;2023-05-10T13:20:25;11.90;;;2.67;;
66270;SDS011;53063;39.614;8.814;2023-05-10T13:22:51;10.68;;;2.05;;
66270;SDS011;53063;39.614;8.814;2023-05-10T13:25:17;10.50;;;2.17;;
66270;SDS011;53063;39.614;8.814;2023-05-10T13:27:43;13.82;;;2.22;;
66270;SDS011;53063;39.614;8.814;2023-05-10T13:30:10;16.77;;;2.15;;
66270;SDS011;53063;39.614;8.814;2023-05-10T13:32:36;12.55;;;2.58;;
66270;SDS011;53063;39.614;8.814;2023-05-10T13:35:02;16.60;;;2.25;;
66270;SDS011;53063;39.614;8.814;2023-05-10T13:37:32;15.48;;;2.13;;
66270;SDS011;53063;39.614;8.814;2023-05-10T13:40:01;18.00;;;1.92;;
66270;SDS011;53063;39.614;8.814;2023-05-10T13:42:27;11.73;;;2.13;;
66270;SDS011;53063;39.614;8.814;2023-05-10T13:44:53;8.68;;;1.67;;
66270;SDS011;53063;39.614;8.814;2023-05-10T13:47:19;8.77;;;1.92;;
66270;SDS011;53063;39.614;8.814;2023-05-10T13:49:46;12.05;;;2.40;;
66270;SDS011;53063;39.614;8.814;2023-05-10T13:52:12;12.18;;;2.22;;
66270;SDS011;53063;39.614;8.814;2023-05-10T13:54:38;10.02;;;2.00;;
66270;SDS011;53063;39.614;8.814;2023-05-10T13:57:05;11.98;;;2.33;;
66270;SDS011;53063;39.614;8.814;2023-05-10T13:59:31;10.07;;;2.03;;
66270;SDS011;53063;39.614;8.814;2023-05-10T14:01:58;13.20;;;2.60;;
66270;SDS011;53063;39.614;8.814;2023-05-10T14:04:24;14.98;;;2.30;;
66270;SDS011;53063;39.614;8.814;2023-05-10T14:06:50;13.02;;;1.88;;
66270;SDS011;53063;39.614;8.814;2023-05-10T14:09:18;15.95;;;2.22;;
66270;SDS011;53063;39.614;8.814;2023-05-10T14:11:44;12.65;;;2.00;;
66270;SDS011;53063;39.614;8.814;2023-05-10T14:14:10;16.33;;;2.53;;
66270;SDS011;53063;39.614;8.814;2023-05-10T14:16:38;8.88;;;2.17;;
66270;SDS011;53063;39.614;8.814;2023-05-10T14:19:06;10.43;;;2.05;;
66270;SDS011;53063;39.614;8.814;2023-05-10T14:21:32;11.35;;;2.80;;
66270;SDS011;53063;39.614;8.814;2023-05-10T14:23:59;12.05;;;2.00;;
66270;SDS011;53063;39.614;8.814;2023-05-10T14:26:25;15.38;;;2.30;;
66270;SDS011;53063;39.614;8.814;2023-05-10T14:28:52;13.55;;;1.88;;
66270;SDS011;53063;39.614;8.814;2023-05-10T14:31:18;12.02;;;2.20;;
66270;SDS011;53063;39.614;8.814;2023-05-10T14:33:49;12.77;;;2.40;;
66270;SDS011;53063;39.614;8.814;2023-05-10T14:36:15;13.85;;;2.28;;
66270;SDS011;53063;39.614;8.814;2023-05-10T14:38:41;16.17;;;2.40;;
66270;SDS011;53063;39.614;8.814;2023-05-10T14:41:07;9.23;;;2.05;;
66270;SDS011;53063;39.614;8.814;2023-05-10T14:43:33;18.35;;;3.05;;
66270;SDS011;53063;39.614;8.814;2023-05-10T14:45:59;15.07;;;2.33;;
66270;SDS011;53063;39.614;8.814;2023-05-10T14:48:25;9.85;;;1.70;;
66270;SDS011;53063;39.614;8.814;2023-05-10T14:50:51;14.60;;;2.45;;
66270;SDS011;53063;39.614;8.814;2023-05-10T14:53:17;13.68;;;1.92;;
66270;SDS011;53063;39.614;8.814;2023-05-10T14:55:43;11.85;;;2.13;;
66270;SDS011;53063;39.614;8.814;2023-05-10T14:58:09;12.63;;;2.53;;
66270;SDS011;53063;39.614;8.814;2023-05-10T15:00:35;10.88;;;1.88;;
66270;SDS011;53063;39.614;8.814;2023-05-10T15:03:01;13.13;;;2.10;;
66270;SDS011;53063;39.614;8.814;2023-05-10T15:05:27;11.90;;;2.05;;
66270;SDS011;53063;39.614;8.814;2023-05-10T15:07:53;12.13;;;1.70;;
66270;SDS011;53063;39.614;8.814;2023-05-10T15:10:19;10.27;;;1.73;;
66270;SDS011;53063;39.614;8.814;2023-05-10T15:12:45;9.18;;;2.03;;
66270;SDS011;53063;39.614;8.814;2023-05-10T15:15:10;9.05;;;2.15;;